createdAt,value
2018-12-22T00:01:53.944Z,11.80
2018-12-22T00:04:25.271Z,11.80
2018-12-22T00:06:53.522Z,11.80
2018-12-22T00:09:19.856Z,11.80
2018-12-22T00:11:46.169Z,11.70
2018-12-22T00:14:12.404Z,11.70
2018-12-22T00:16:42.927Z,11.80
2018-12-22T00:19:10.152Z,11.60
2018-12-22T00:21:36.431Z,11.80
2018-12-22T00:24:02.925Z,11.80
2018-12-22T00:26:31.132Z,11.80
2018-12-22T00:28:58.238Z,11.80
2018-12-22T00:31:24.347Z,11.90
2018-12-22T00:33:50.588Z,12.00
2018-12-22T00:36:16.986Z,12.00
2018-12-22T00:38:43.052Z,12.10
2018-12-22T00:41:10.387Z,12.10
2018-12-22T00:43:36.470Z,12.20
2018-12-22T00:46:02.742Z,12.20
2018-12-22T00:48:28.982Z,12.20
2018-12-22T00:50:55.078Z,12.20
2018-12-22T00:53:22.320Z,12.20
2018-12-22T00:55:48.622Z,12.10
2018-12-22T01:01:09.792Z,12.00
2018-12-22T01:03:36.014Z,12.00
2018-12-22T01:06:02.214Z,11.90
2018-12-22T01:08:28.519Z,11.90
2018-12-22T01:10:54.642Z,11.90
2018-12-22T01:13:20.667Z,11.80
2018-12-22T01:15:47.111Z,11.80
2018-12-22T01:18:14.398Z,11.70
2018-12-22T01:20:43.933Z,11.60
2018-12-22T01:23:11.054Z,11.60
2018-12-22T01:25:37.258Z,11.60
2018-12-22T01:28:08.968Z,11.50
2018-12-22T01:30:35.272Z,11.60
2018-12-22T01:33:01.490Z,11.50
2018-12-22T01:35:29.000Z,11.60
2018-12-22T01:37:55.948Z,11.60
2018-12-22T01:40:26.524Z,11.50
2018-12-22T01:42:54.855Z,11.50
2018-12-22T01:45:20.970Z,11.60
2018-12-22T01:47:47.262Z,11.50
2018-12-22T01:50:13.512Z,11.60
2018-12-22T01:55:34.913Z,11.60
2018-12-22T01:58:01.103Z,11.50
2018-12-22T02:00:27.204Z,11.50
2018-12-22T02:02:53.423Z,11.50
2018-12-22T02:05:19.673Z,11.50
2018-12-22T02:07:52.942Z,11.50
2018-12-22T02:10:19.217Z,11.50
2018-12-22T02:12:53.140Z,11.50
2018-12-22T02:15:19.227Z,11.50
2018-12-22T02:17:45.367Z,11.50
2018-12-22T02:20:11.603Z,11.50
2018-12-22T02:22:37.855Z,11.50
2018-12-22T02:25:04.172Z,11.50
2018-12-22T02:27:30.419Z,11.40
2018-12-22T02:29:56.684Z,11.40
2018-12-22T02:32:23.012Z,11.30
2018-12-22T02:34:49.192Z,11.30
2018-12-22T02:37:15.268Z,11.30
2018-12-22T02:39:41.445Z,11.20
2018-12-22T02:42:07.681Z,11.30
2018-12-22T02:44:33.989Z,11.20
2018-12-22T02:47:02.166Z,11.20
2018-12-22T02:49:28.473Z,11.20
2018-12-22T02:51:54.592Z,11.20
2018-12-22T02:54:20.869Z,11.20
2018-12-22T02:56:47.026Z,11.20
2018-12-22T02:59:13.178Z,11.20
2018-12-22T03:01:39.356Z,11.20
2018-12-22T03:04:05.482Z,11.20
2018-12-22T03:09:33.680Z,11.20
2018-12-22T03:11:59.796Z,11.20
2018-12-22T03:14:26.119Z,11.20
2018-12-22T03:16:52.348Z,11.20
2018-12-22T03:19:18.510Z,11.20
2018-12-22T03:21:45.743Z,11.30
2018-12-22T03:24:11.982Z,11.20
2018-12-22T03:26:39.039Z,11.20
2018-12-22T03:29:15.479Z,11.30
2018-12-22T03:34:34.574Z,11.30
2018-12-22T03:37:00.840Z,11.30
2018-12-22T03:39:27.225Z,11.20
2018-12-22T03:41:54.470Z,11.20
2018-12-22T03:44:22.620Z,11.20
2018-12-22T03:46:48.871Z,11.20
2018-12-22T03:49:16.051Z,11.20
2018-12-22T03:51:43.223Z,11.20
2018-12-22T03:54:09.460Z,11.20
2018-12-22T03:56:35.795Z,11.30
2018-12-22T03:59:02.092Z,11.30
2018-12-22T04:01:32.246Z,11.40
2018-12-22T04:03:58.531Z,11.40
2018-12-22T04:06:24.970Z,11.50
2018-12-22T04:08:55.124Z,11.50
2018-12-22T04:11:35.447Z,11.60
2018-12-22T04:14:01.724Z,11.60
2018-12-22T04:16:27.813Z,11.60
2018-12-22T04:18:54.143Z,11.60
2018-12-22T04:21:20.350Z,11.60
2018-12-22T04:23:46.570Z,11.70
2018-12-22T04:26:13.746Z,11.70
2018-12-22T04:28:39.960Z,11.60
2018-12-22T04:31:07.066Z,11.60
2018-12-22T04:33:33.191Z,11.70
2018-12-22T04:36:00.303Z,11.70
2018-12-22T04:38:26.630Z,11.70
2018-12-22T04:40:53.859Z,11.70
2018-12-22T04:43:20.350Z,11.70
2018-12-22T04:45:47.484Z,11.80
2018-12-22T04:48:16.916Z,11.70
2018-12-22T04:50:48.122Z,11.70
2018-12-22T04:53:19.618Z,11.80
2018-12-22T04:55:45.899Z,11.70
2018-12-22T04:58:13.410Z,11.80
2018-12-22T05:00:40.680Z,11.70
2018-12-22T05:03:06.850Z,11.80
2018-12-22T05:05:34.115Z,11.70
2018-12-22T05:08:00.466Z,11.70
2018-12-22T05:10:27.808Z,11.60
2018-12-22T05:12:54.077Z,11.60
2018-12-22T05:15:20.390Z,11.60
2018-12-22T05:17:46.739Z,11.70
2018-12-22T05:20:12.966Z,11.60
2018-12-22T05:22:39.422Z,11.60
2018-12-22T05:28:00.757Z,11.60
2018-12-22T05:30:27.062Z,11.70
2018-12-22T05:32:54.465Z,11.70
2018-12-22T05:35:21.740Z,11.60
2018-12-22T05:40:45.537Z,11.60
2018-12-22T05:43:11.679Z,11.70
2018-12-22T05:45:37.943Z,11.60
2018-12-22T05:48:04.228Z,11.70
2018-12-22T05:50:30.389Z,11.70
2018-12-22T05:52:56.626Z,11.70
2018-12-22T05:55:22.901Z,11.80
2018-12-22T05:57:48.963Z,11.80
2018-12-22T06:00:15.160Z,11.80
2018-12-22T06:02:42.500Z,11.80
2018-12-22T06:05:10.407Z,11.80
2018-12-22T06:07:37.633Z,11.80
2018-12-22T06:10:05.779Z,11.80
2018-12-22T06:12:32.055Z,11.80
2018-12-22T06:14:59.367Z,11.80
2018-12-22T06:17:27.625Z,11.80
2018-12-22T06:19:54.052Z,11.80
2018-12-22T06:22:20.606Z,11.70
2018-12-22T06:24:46.696Z,11.80
2018-12-22T06:27:12.933Z,11.80
2018-12-22T06:29:39.539Z,11.80
2018-12-22T06:32:05.991Z,11.90
2018-12-22T06:34:33.786Z,11.90
2018-12-22T06:37:00.013Z,12.00
2018-12-22T06:39:26.092Z,12.00
2018-12-22T06:41:52.272Z,12.10
2018-12-22T06:44:20.591Z,12.10
2018-12-22T06:46:46.814Z,12.10
2018-12-22T06:49:15.058Z,12.10
2018-12-22T06:51:42.444Z,12.10
2018-12-22T06:54:10.835Z,12.10
2018-12-22T06:56:37.146Z,12.20
2018-12-22T06:59:03.330Z,12.30
2018-12-22T07:01:29.620Z,12.20
2018-12-22T07:03:56.762Z,12.20
2018-12-22T07:06:22.951Z,12.20
2018-12-22T07:08:49.170Z,12.20
2018-12-22T07:11:15.354Z,12.20
2018-12-22T07:13:41.623Z,12.30
2018-12-22T07:16:07.803Z,12.30
2018-12-22T07:18:34.194Z,12.30
2018-12-22T07:21:00.483Z,12.30
2018-12-22T07:23:26.753Z,12.30
2018-12-22T07:25:53.109Z,12.30
2018-12-22T07:28:19.321Z,12.20
2018-12-22T07:30:46.202Z,12.30
2018-12-22T07:33:12.597Z,12.30
2018-12-22T07:35:42.490Z,12.30
2018-12-22T07:38:13.576Z,12.40
2018-12-22T07:40:39.840Z,12.40
2018-12-22T07:43:06.154Z,12.30
2018-12-22T07:45:32.367Z,12.30
2018-12-22T07:48:00.085Z,12.30
2018-12-22T07:50:26.827Z,12.40
2018-12-22T07:52:53.064Z,12.40
2018-12-22T07:55:19.266Z,12.30
2018-12-22T07:57:45.569Z,12.30
2018-12-22T08:00:11.849Z,12.30
2018-12-22T08:02:38.174Z,12.30
2018-12-22T08:05:04.463Z,12.30
2018-12-22T08:07:30.825Z,12.30
2018-12-22T08:09:57.189Z,12.40
2018-12-22T08:12:23.498Z,12.40
2018-12-22T08:14:49.651Z,12.40
2018-12-22T08:17:15.786Z,12.40
2018-12-22T08:19:42.092Z,12.40
2018-12-22T08:22:08.566Z,12.50
2018-12-22T08:24:35.531Z,12.50
2018-12-22T08:27:02.913Z,12.50
2018-12-22T08:29:29.208Z,12.60
2018-12-22T08:31:55.514Z,12.60
2018-12-22T08:34:26.487Z,12.60
2018-12-22T08:36:54.444Z,12.60
2018-12-22T08:39:20.688Z,12.60
2018-12-22T08:41:50.252Z,12.60
2018-12-22T08:44:16.529Z,12.60
2018-12-22T08:46:43.706Z,12.60
2018-12-22T08:49:09.958Z,12.60
2018-12-22T08:51:38.053Z,12.60
2018-12-22T08:54:05.206Z,12.60
2018-12-22T08:56:31.400Z,12.60
2018-12-22T08:58:57.763Z,12.60
2018-12-22T09:01:24.046Z,12.60
2018-12-22T09:03:50.120Z,12.50
2018-12-22T09:06:17.510Z,12.50
2018-12-22T09:08:43.752Z,12.40
2018-12-22T09:11:09.943Z,12.40
2018-12-22T09:13:39.844Z,12.40
2018-12-22T09:16:08.122Z,12.40
2018-12-22T09:18:39.290Z,12.30
2018-12-22T09:21:05.556Z,12.30
2018-12-22T09:23:31.795Z,12.30
2018-12-22T09:25:58.895Z,12.40
2018-12-22T09:28:25.129Z,12.40
2018-12-22T09:30:51.469Z,12.40
2018-12-22T09:33:18.793Z,12.30
2018-12-22T09:35:45.127Z,12.40
2018-12-22T09:38:11.410Z,12.30
2018-12-22T09:43:35.132Z,12.20
2018-12-22T09:46:01.734Z,11.60
2018-12-22T09:48:29.915Z,11.10
2018-12-22T09:50:56.129Z,10.90
2018-12-22T09:53:22.262Z,10.80
2018-12-22T09:55:49.543Z,10.60
2018-12-22T09:58:15.874Z,10.50
2018-12-22T10:00:42.086Z,10.40
2018-12-22T10:03:10.385Z,10.30
2018-12-22T10:05:42.156Z,10.30
2018-12-22T10:08:11.792Z,10.30
2018-12-22T10:10:38.993Z,10.30
2018-12-22T10:13:05.299Z,10.20
2018-12-22T10:15:32.130Z,10.20
2018-12-22T10:17:58.313Z,10.20
2018-12-22T10:20:24.681Z,10.20
2018-12-22T10:22:51.161Z,10.20
2018-12-22T10:25:17.460Z,10.30
2018-12-22T10:27:43.919Z,10.40
2018-12-22T10:30:11.092Z,10.40
2018-12-22T10:32:37.308Z,10.40
2018-12-22T10:35:11.269Z,10.40
2018-12-22T10:37:37.354Z,10.40
2018-12-22T10:40:05.921Z,10.40
2018-12-22T10:42:32.127Z,10.40
2018-12-22T10:44:58.759Z,10.40
2018-12-22T10:47:24.944Z,10.40
2018-12-22T10:49:51.174Z,10.50
2018-12-22T10:52:17.495Z,10.60
2018-12-22T10:54:43.554Z,10.70
2018-12-22T10:57:09.641Z,10.80
2018-12-22T10:59:35.865Z,10.70
2018-12-22T11:02:03.952Z,10.80
2018-12-22T11:04:30.176Z,10.90
2018-12-22T11:06:56.333Z,10.90
2018-12-22T11:09:22.609Z,10.90
2018-12-22T11:11:48.705Z,11.00
2018-12-22T11:14:15.095Z,11.20
2018-12-22T11:16:41.187Z,11.50
2018-12-22T11:19:07.388Z,11.50
2018-12-22T11:21:33.710Z,11.60
2018-12-22T11:23:59.890Z,11.70
2018-12-22T11:26:25.954Z,11.80
2018-12-22T11:28:52.304Z,11.80
2018-12-22T11:31:19.078Z,12.00
2018-12-22T11:33:45.225Z,12.10
2018-12-22T11:36:11.336Z,12.10
2018-12-22T11:38:38.516Z,12.20
2018-12-22T11:41:04.723Z,12.30
2018-12-22T11:43:31.049Z,12.40
2018-12-22T11:45:57.144Z,12.30
2018-12-22T11:48:23.554Z,12.30
2018-12-22T11:50:50.046Z,12.30
2018-12-22T11:53:16.385Z,12.40
2018-12-22T11:55:42.516Z,12.40
2018-12-22T11:58:08.902Z,12.40
2018-12-22T12:00:35.874Z,12.50
2018-12-22T12:03:02.109Z,12.50
2018-12-22T12:05:28.381Z,12.70
2018-12-22T12:07:54.587Z,12.70
2018-12-22T12:10:20.782Z,12.80
2018-12-22T12:12:46.940Z,12.80
2018-12-22T12:15:16.332Z,12.80
2018-12-22T12:17:48.414Z,12.80
2018-12-22T12:20:14.658Z,12.80
2018-12-22T12:22:40.894Z,12.80
2018-12-22T12:25:07.035Z,12.80
2018-12-22T12:27:33.110Z,12.80
2018-12-22T12:29:59.355Z,12.80
2018-12-22T12:32:25.534Z,12.80
2018-12-22T12:34:52.471Z,12.80
2018-12-22T12:37:18.877Z,12.80
2018-12-22T12:39:45.085Z,12.80
2018-12-22T12:42:11.286Z,12.70
2018-12-22T12:44:38.607Z,12.70
2018-12-22T12:47:05.128Z,12.70
2018-12-22T12:49:31.448Z,12.70
2018-12-22T12:51:57.630Z,12.70
2018-12-22T12:54:23.828Z,12.70
2018-12-22T12:56:50.184Z,12.70
2018-12-22T12:59:16.303Z,12.70
2018-12-22T13:01:42.614Z,12.70
2018-12-22T13:04:09.791Z,12.70
2018-12-22T13:06:36.044Z,12.70
2018-12-22T13:09:03.766Z,12.70
2018-12-22T13:11:29.982Z,12.70
2018-12-22T13:13:56.267Z,12.70
2018-12-22T13:16:22.518Z,12.70
2018-12-22T13:18:48.670Z,12.70
2018-12-22T13:21:14.887Z,12.70
2018-12-22T13:23:41.067Z,12.80
2018-12-22T13:26:07.893Z,12.80
2018-12-22T13:28:34.170Z,12.80
2018-12-22T13:31:00.463Z,12.80
2018-12-22T13:33:26.762Z,12.80
2018-12-22T13:35:53.047Z,12.80
2018-12-22T13:38:19.447Z,12.80
2018-12-22T13:40:45.654Z,12.80
2018-12-22T13:43:11.872Z,12.90
2018-12-22T13:45:38.103Z,12.90
2018-12-22T13:48:05.345Z,12.90
2018-12-22T13:50:31.765Z,12.80
2018-12-22T13:52:58.072Z,12.80
2018-12-22T13:55:24.236Z,12.80
2018-12-22T13:57:50.341Z,12.80
2018-12-22T14:00:18.760Z,12.80
2018-12-22T14:02:44.855Z,12.80
2018-12-22T14:05:17.617Z,12.80
2018-12-22T14:07:43.945Z,12.70
2018-12-22T14:10:11.474Z,12.70
2018-12-22T14:12:37.629Z,12.60
2018-12-22T14:15:10.497Z,12.60
2018-12-22T14:17:38.175Z,12.60
2018-12-22T14:20:07.222Z,12.60
2018-12-22T14:22:33.543Z,12.60
2018-12-22T14:24:59.896Z,12.60
2018-12-22T14:27:26.162Z,12.60
2018-12-22T14:29:52.431Z,12.50
2018-12-22T14:32:26.678Z,12.50
2018-12-22T14:34:47.568Z,12.50
2018-12-22T14:37:13.897Z,12.50
2018-12-22T14:39:40.063Z,12.50
2018-12-22T14:42:06.918Z,12.40
2018-12-22T14:44:33.426Z,12.50
2018-12-22T14:46:59.724Z,12.40
2018-12-22T14:49:26.537Z,12.40
2018-12-22T14:51:52.771Z,12.40
2018-12-22T14:54:19.065Z,12.50
2018-12-22T14:56:45.370Z,12.40
2018-12-22T14:59:11.673Z,12.40
2018-12-22T15:01:38.046Z,12.40
2018-12-22T15:04:04.337Z,12.50
2018-12-22T15:06:30.665Z,12.40
2018-12-22T15:08:57.898Z,12.40
2018-12-22T15:11:24.315Z,12.30
2018-12-22T15:13:50.591Z,12.40
2018-12-22T15:16:17.530Z,12.30
2018-12-22T15:18:44.575Z,12.30
2018-12-22T15:21:10.883Z,12.30
2018-12-22T15:23:37.246Z,12.20
2018-12-22T15:26:03.451Z,12.20
2018-12-22T15:28:29.639Z,12.20
2018-12-22T15:30:55.904Z,12.10
2018-12-22T15:33:22.228Z,12.10
2018-12-22T15:35:48.457Z,12.00
2018-12-22T15:38:14.907Z,12.00
2018-12-22T15:40:41.206Z,12.00
2018-12-22T15:43:07.527Z,11.90
2018-12-22T15:45:33.871Z,11.90
2018-12-22T15:48:00.202Z,11.80
2018-12-22T15:50:31.080Z,11.70
2018-12-22T15:52:58.100Z,11.70
2018-12-22T15:55:24.282Z,11.70
2018-12-22T15:57:52.792Z,11.70
2018-12-22T16:00:19.196Z,11.60
2018-12-22T16:02:53.140Z,11.60
2018-12-22T16:05:13.798Z,11.60
2018-12-22T16:07:40.820Z,11.50
2018-12-22T16:10:12.328Z,11.50
2018-12-22T16:12:38.717Z,11.50
2018-12-22T16:15:08.739Z,11.40
2018-12-22T16:17:34.876Z,11.40
2018-12-22T16:20:01.233Z,11.30
2018-12-22T16:22:27.614Z,11.30
2018-12-22T16:24:53.901Z,11.20
2018-12-22T16:27:20.051Z,11.20
2018-12-22T16:29:46.293Z,11.10
2018-12-22T16:32:12.501Z,11.10
2018-12-22T16:34:38.649Z,11.10
2018-12-22T16:37:05.688Z,11.10
2018-12-22T16:39:31.976Z,11.00
2018-12-22T16:41:58.765Z,10.90
2018-12-22T16:44:24.938Z,10.90
2018-12-22T16:46:51.841Z,10.90
2018-12-22T16:49:18.038Z,10.80
2018-12-22T16:51:44.337Z,10.80
2018-12-22T16:54:10.605Z,10.80
2018-12-22T16:56:36.887Z,10.80
2018-12-22T16:59:03.100Z,10.80
2018-12-22T17:01:33.263Z,10.70
2018-12-22T17:03:59.479Z,10.70
2018-12-22T17:06:26.151Z,10.70
2018-12-22T17:08:52.401Z,10.60
2018-12-22T17:11:18.482Z,10.50
2018-12-22T17:13:44.918Z,10.50
2018-12-22T17:16:11.219Z,10.50
2018-12-22T17:18:37.407Z,10.40
2018-12-22T17:21:08.648Z,10.40
2018-12-22T17:23:41.643Z,10.30
2018-12-22T17:26:07.877Z,10.40
2018-12-22T17:28:33.976Z,10.30
2018-12-22T17:31:00.249Z,10.40
2018-12-22T17:33:26.453Z,10.40
2018-12-22T17:35:52.679Z,10.30
2018-12-22T17:38:20.728Z,10.30
2018-12-22T17:40:47.026Z,10.30
2018-12-22T17:43:13.150Z,10.30
2018-12-22T17:45:39.377Z,10.30
2018-12-22T17:48:05.564Z,10.30
2018-12-22T17:50:31.835Z,10.30
2018-12-22T17:52:59.654Z,10.30
2018-12-22T17:55:26.046Z,10.30
2018-12-22T17:57:52.220Z,10.30
2018-12-22T18:00:20.326Z,10.30
2018-12-22T18:02:46.622Z,10.30
2018-12-22T18:05:13.080Z,10.30
2018-12-22T18:07:39.178Z,10.30
2018-12-22T18:10:10.318Z,10.20
2018-12-22T18:12:36.756Z,10.20
2018-12-22T18:15:21.691Z,10.20
2018-12-22T18:17:54.915Z,10.20
2018-12-22T18:20:21.246Z,10.20
2018-12-22T18:22:47.414Z,10.20
2018-12-22T18:25:18.483Z,10.30
2018-12-22T18:27:46.618Z,10.20
2018-12-22T18:30:12.916Z,10.20
2018-12-22T18:32:40.423Z,10.20
2018-12-22T18:35:08.800Z,10.20
2018-12-22T18:37:35.007Z,10.20
2018-12-22T18:40:04.198Z,10.20
2018-12-22T18:42:30.455Z,10.20
2018-12-22T18:44:56.836Z,10.20
2018-12-22T18:47:23.166Z,10.20
2018-12-22T18:49:49.428Z,10.20
2018-12-22T18:52:15.580Z,10.20
2018-12-22T18:54:41.804Z,10.20
2018-12-22T18:57:08.064Z,10.20
2018-12-22T18:59:34.412Z,10.20
2018-12-22T19:02:01.468Z,10.20
2018-12-22T19:04:27.819Z,10.10
2018-12-22T19:06:54.226Z,10.20
2018-12-22T19:09:22.742Z,10.20
2018-12-22T19:11:49.051Z,10.20
2018-12-22T19:14:15.443Z,10.10
2018-12-22T19:16:42.690Z,10.10
2018-12-22T19:19:08.855Z,10.20
2018-12-22T19:21:35.245Z,10.20
2018-12-22T19:24:02.501Z,10.20
2018-12-22T19:26:28.916Z,10.20
2018-12-22T19:28:55.270Z,10.10
2018-12-22T19:31:21.892Z,10.20
2018-12-22T19:33:53.474Z,10.20
2018-12-22T19:36:17.335Z,10.20
2018-12-22T19:38:43.547Z,10.10
2018-12-22T19:41:09.665Z,10.10
2018-12-22T19:43:35.699Z,10.10
2018-12-22T19:46:01.968Z,10.10
2018-12-22T19:48:28.063Z,10.20
2018-12-22T19:50:54.384Z,10.10
2018-12-22T19:53:20.619Z,10.10
2018-12-22T19:55:46.851Z,10.10
2018-12-22T19:58:13.464Z,10.10
2018-12-22T20:00:39.771Z,10.00
2018-12-22T20:03:06.208Z,10.10
2018-12-22T20:05:32.373Z,10.10
2018-12-22T20:07:58.693Z,10.00
2018-12-22T20:10:25.169Z,10.10
2018-12-22T20:12:52.435Z,10.10
2018-12-22T20:15:18.820Z,10.10
2018-12-22T20:17:45.200Z,10.10
2018-12-22T20:20:11.630Z,10.10
2018-12-22T20:22:37.977Z,10.20
2018-12-22T20:25:05.018Z,10.20
2018-12-22T20:27:31.262Z,10.20
2018-12-22T20:29:57.795Z,10.10
2018-12-22T20:32:24.022Z,10.10
2018-12-22T20:34:50.144Z,10.20
2018-12-22T20:37:16.314Z,10.20
2018-12-22T20:39:42.478Z,10.20
2018-12-22T20:42:08.828Z,10.10
2018-12-22T20:44:35.400Z,10.10
2018-12-22T20:47:01.599Z,10.10
2018-12-22T20:49:28.096Z,10.10
2018-12-22T20:51:54.908Z,10.10
2018-12-22T20:54:28.334Z,10.10
2018-12-22T20:56:55.218Z,10.10
2018-12-22T20:59:21.669Z,10.10
2018-12-22T21:01:48.673Z,10.10
2018-12-22T21:04:19.885Z,10.20
2018-12-22T21:06:43.609Z,10.20
2018-12-22T21:09:09.918Z,10.20
2018-12-22T21:11:36.830Z,10.20
2018-12-22T21:14:03.639Z,10.20
2018-12-22T21:16:30.308Z,10.20
2018-12-22T21:18:56.999Z,10.30
2018-12-22T21:21:23.363Z,10.20
2018-12-22T21:23:50.922Z,10.30
2018-12-22T21:26:17.999Z,10.30
2018-12-22T21:28:44.824Z,10.40
2018-12-22T21:31:11.234Z,10.30
2018-12-22T21:33:37.791Z,10.40
2018-12-22T21:36:06.170Z,10.40
2018-12-22T21:38:33.511Z,10.30
2018-12-22T21:41:01.507Z,10.30
2018-12-22T21:43:27.843Z,10.30
2018-12-22T21:45:55.440Z,10.30
2018-12-22T21:48:22.722Z,10.30
2018-12-22T21:50:49.009Z,10.30
2018-12-22T21:53:15.106Z,10.30
2018-12-22T21:55:41.846Z,10.30
2018-12-22T21:58:08.151Z,10.30
2018-12-22T22:00:36.439Z,10.30
2018-12-22T22:03:02.837Z,10.20
2018-12-22T22:05:29.173Z,10.20
2018-12-22T22:07:55.664Z,10.20
2018-12-22T22:10:24.104Z,10.20
2018-12-22T22:12:50.309Z,10.20
2018-12-22T22:15:16.537Z,10.20
2018-12-22T22:17:42.784Z,10.20
2018-12-22T22:20:09.211Z,10.20
2018-12-22T22:22:37.044Z,10.30
2018-12-22T22:25:04.515Z,10.30
2018-12-22T22:27:30.933Z,10.30
2018-12-22T22:29:57.292Z,10.30
2018-12-22T22:32:23.560Z,10.30
2018-12-22T22:34:50.240Z,10.30
2018-12-22T22:37:16.517Z,10.30
2018-12-22T22:39:43.045Z,10.30
2018-12-22T22:42:09.930Z,10.20
2018-12-22T22:44:36.229Z,10.20
2018-12-22T22:47:02.456Z,10.20
2018-12-22T22:49:28.696Z,10.20
2018-12-22T22:51:54.920Z,10.20
2018-12-22T22:54:21.102Z,10.10
2018-12-22T22:56:47.377Z,10.10
2018-12-22T22:59:13.566Z,10.10
2018-12-22T23:01:39.887Z,10.10
2018-12-22T23:04:06.187Z,10.00
2018-12-22T23:06:32.370Z,10.00
2018-12-22T23:09:00.536Z,9.90
2018-12-22T23:11:27.964Z,9.90
2018-12-22T23:13:54.055Z,9.90
2018-12-22T23:16:21.472Z,9.90
2018-12-22T23:18:47.919Z,9.90
2018-12-22T23:21:13.971Z,9.80
2018-12-22T23:23:40.979Z,9.90
2018-12-22T23:26:07.369Z,9.90
2018-12-22T23:28:33.768Z,9.90
2018-12-22T23:30:59.895Z,9.90
2018-12-22T23:33:27.191Z,9.90
2018-12-22T23:35:53.456Z,9.80
2018-12-22T23:38:19.713Z,9.80
2018-12-22T23:40:45.715Z,9.70
2018-12-22T23:43:11.777Z,9.60
2018-12-22T23:45:37.987Z,9.60
2018-12-22T23:48:04.183Z,9.60
2018-12-22T23:50:30.499Z,9.60
2018-12-22T23:52:56.768Z,9.50
2018-12-22T23:55:22.913Z,9.60
2018-12-22T23:57:49.201Z,9.50
